createdAt,value
2023-08-07T20:00:51.755Z,15.03
2023-08-07T20:03:23.612Z,15.02
2023-08-07T20:05:56.217Z,15.05
2023-08-07T20:08:27.914Z,15.08
2023-08-07T20:11:01.168Z,15.13
2023-08-07T20:13:33.651Z,15.18
2023-08-07T20:16:05.996Z,15.22
2023-08-07T20:18:37.877Z,15.26
2023-08-07T20:21:09.604Z,15.29
2023-08-07T20:23:41.291Z,15.32
2023-08-07T20:26:12.928Z,15.34
2023-08-07T20:28:44.618Z,15.36
2023-08-07T20:31:16.664Z,15.38
2023-08-07T20:33:48.470Z,15.41
2023-08-07T20:36:20.135Z,15.43
2023-08-07T20:38:51.942Z,15.46
2023-08-07T20:41:23.658Z,15.48
2023-08-07T20:43:55.430Z,15.49
2023-08-07T20:46:27.175Z,15.51
2023-08-07T20:48:58.917Z,15.53
2023-08-07T20:51:32.365Z,15.55
2023-08-07T20:54:04.087Z,15.58
2023-08-07T20:56:35.782Z,15.61
2023-08-07T20:59:07.502Z,15.63
2023-08-07T21:01:41.060Z,15.66
2023-08-07T21:04:13.401Z,15.68
2023-08-07T21:06:45.388Z,15.70
2023-08-07T21:09:17.110Z,15.72
2023-08-07T21:11:48.798Z,15.74
2023-08-07T21:14:20.532Z,15.76
2023-08-07T21:16:52.442Z,15.77
2023-08-07T21:19:24.171Z,15.79
2023-08-07T21:21:55.935Z,15.81
2023-08-07T21:24:27.829Z,15.81
2023-08-07T21:26:59.557Z,15.81
2023-08-07T21:29:31.246Z,15.82
2023-08-07T21:32:03.145Z,15.82
2023-08-07T21:34:34.862Z,15.82
2023-08-07T21:37:07.411Z,15.83
2023-08-07T21:39:39.087Z,15.83
2023-08-07T21:42:11.507Z,15.83
2023-08-07T21:44:43.224Z,15.82
2023-08-07T21:47:14.921Z,15.83
2023-08-07T21:49:46.639Z,15.83
2023-08-07T21:52:18.398Z,15.82
2023-08-07T21:54:50.227Z,15.82
2023-08-07T21:57:22.021Z,15.81
2023-08-07T21:59:53.748Z,15.81
2023-08-07T22:02:25.513Z,15.83
2023-08-07T22:04:57.216Z,15.82
2023-08-07T22:07:28.911Z,15.81
2023-08-07T22:10:00.638Z,15.79
2023-08-07T22:12:32.347Z,15.76
2023-08-07T22:15:04.603Z,15.75
2023-08-07T22:17:36.392Z,15.74
2023-08-07T22:20:11.830Z,15.73
2023-08-07T22:22:44.340Z,15.73
2023-08-07T22:25:16.116Z,15.74
2023-08-07T22:27:48.887Z,15.76
2023-08-07T22:30:21.778Z,15.75
2023-08-07T22:32:53.591Z,15.73
2023-08-07T22:35:25.374Z,15.73
2023-08-07T22:37:57.034Z,15.73
2023-08-07T22:40:28.758Z,15.73
2023-08-07T22:43:00.470Z,15.73
2023-08-07T22:45:32.168Z,15.71
2023-08-07T22:48:03.910Z,15.70
2023-08-07T22:50:35.745Z,15.69
2023-08-07T22:53:07.534Z,15.67
2023-08-07T22:55:39.238Z,15.65
2023-08-07T22:58:11.013Z,15.64
2023-08-07T23:00:42.790Z,15.63
2023-08-07T23:03:14.557Z,15.62
2023-08-07T23:05:46.330Z,15.61
2023-08-07T23:08:18.031Z,15.61
2023-08-07T23:10:49.886Z,15.60
2023-08-07T23:13:21.641Z,15.59
2023-08-07T23:15:53.866Z,15.59
2023-08-07T23:18:25.648Z,15.59
2023-08-07T23:20:57.374Z,15.56
2023-08-07T23:23:29.050Z,15.53
2023-08-07T23:26:00.713Z,15.52
2023-08-07T23:28:32.502Z,15.52
2023-08-07T23:31:04.246Z,15.51
2023-08-07T23:33:35.954Z,15.50
2023-08-07T23:36:07.970Z,15.50
2023-08-07T23:38:39.638Z,15.49
2023-08-07T23:41:11.274Z,15.48
2023-08-07T23:43:43.037Z,15.47
2023-08-07T23:46:14.927Z,15.45
2023-08-07T23:48:46.704Z,15.44
2023-08-07T23:51:18.356Z,15.43
2023-08-07T23:53:50.661Z,15.43
2023-08-07T23:56:22.345Z,15.41
2023-08-07T23:58:54.031Z,15.40
